CPX947 Details

Departure: Washington Dulles International Airport (KIAD)
Arrival: Schiphol International Airport (EHAM) at N/A
Route: JCOBY3 SWANN BROSS J42 RBV LLUND BAYYS PUT WITCH ALLEX N263A JOOPY NATR BEXET DEVOL RINUS LIFFY UL975 WAL M16 DOLAS L603 LAMSO
Notes: SEASONAL FLIGHT


Current Weather Information
KIAD 171652Z 24005KT 10SM FEW040 SCT060 BKN090 BKN250 31/22 A3001 RMK AO2 SLP157 CB DSNT NE T03060222
EHAM 171725Z 24013KT 190V270 9999 FEW023 19/13 Q1005 NOSIG